createdAt,value
2018-04-27T00:00:59.872Z,15.37
2018-04-27T00:03:30.914Z,15.39
2018-04-27T00:06:01.509Z,15.10
2018-04-27T00:08:32.214Z,15.00
2018-04-27T00:11:03.023Z,14.98
2018-04-27T00:13:33.440Z,15.18
2018-04-27T00:16:04.134Z,15.25
2018-04-27T00:18:34.720Z,15.17
2018-04-27T00:21:05.238Z,15.18
2018-04-27T00:23:35.781Z,15.02
2018-04-27T00:26:06.399Z,14.85
2018-04-27T00:28:37.714Z,14.79
2018-04-27T00:31:08.443Z,14.79
2018-04-27T00:33:38.715Z,14.89
2018-04-27T00:36:08.931Z,14.86
2018-04-27T00:38:40.077Z,14.59
2018-04-27T00:41:10.723Z,14.54
2018-04-27T00:43:41.405Z,14.38
2018-04-27T00:46:12.012Z,14.33
2018-04-27T00:48:43.539Z,14.34
2018-04-27T00:51:14.517Z,14.40
2018-04-27T00:53:45.109Z,14.39
2018-04-27T00:56:16.041Z,14.26
2018-04-27T00:58:46.877Z,14.33
2018-04-27T01:01:17.485Z,14.34
2018-04-27T01:03:48.339Z,14.33
2018-04-27T01:06:18.847Z,14.12
2018-04-27T01:08:49.760Z,14.07
2018-04-27T01:11:20.604Z,14.00
2018-04-27T01:13:50.865Z,14.03
2018-04-27T01:16:20.995Z,13.92
2018-04-27T01:18:51.716Z,13.96
2018-04-27T01:21:22.366Z,13.90
2018-04-27T01:23:53.438Z,13.88
2018-04-27T01:26:24.225Z,14.05
2018-04-27T01:28:55.235Z,13.92
2018-04-27T01:31:25.816Z,13.78
2018-04-27T01:33:56.575Z,13.81
2018-04-27T01:36:27.262Z,13.92
2018-04-27T01:38:57.906Z,13.97
2018-04-27T01:41:28.389Z,13.94
2018-04-27T01:43:58.973Z,13.95
2018-04-27T01:46:29.502Z,13.77
2018-04-27T01:49:00.027Z,13.69
2018-04-27T01:51:30.686Z,13.49
2018-04-27T01:54:01.241Z,13.29
2018-04-27T01:56:31.723Z,13.37
2018-04-27T01:59:02.372Z,13.40
2018-04-27T02:01:32.757Z,13.53
2018-04-27T02:04:03.622Z,13.53
2018-04-27T02:06:34.312Z,13.56
2018-04-27T02:09:04.986Z,13.49
2018-04-27T02:11:35.423Z,13.59
2018-04-27T02:14:05.905Z,13.58
2018-04-27T02:16:36.373Z,13.50
2018-04-27T02:19:07.290Z,13.31
2018-04-27T02:21:38.210Z,13.11
2018-04-27T02:24:08.523Z,13.12
2018-04-27T02:26:39.301Z,13.17
2018-04-27T02:29:09.725Z,13.27
2018-04-27T02:31:40.173Z,13.28
2018-04-27T02:34:10.698Z,13.13
2018-04-27T02:36:41.232Z,13.23
2018-04-27T02:39:11.236Z,13.21
2018-04-27T02:41:42.090Z,13.09
2018-04-27T02:44:11.896Z,12.85
2018-04-27T02:46:43.436Z,12.89
2018-04-27T02:49:13.425Z,12.98
2018-04-27T02:51:44.574Z,13.07
2018-04-27T02:54:15.225Z,12.93
2018-04-27T02:56:45.585Z,12.48
2018-04-27T02:59:16.369Z,12.62
2018-04-27T03:01:46.802Z,12.67
2018-04-27T03:04:17.951Z,12.50
2018-04-27T03:06:50.031Z,12.70
2018-04-27T03:09:21.178Z,12.78
2018-04-27T03:11:51.826Z,12.74
2018-04-27T03:14:23.180Z,12.65
2018-04-27T03:16:54.011Z,12.57
2018-04-27T03:19:24.980Z,12.49
2018-04-27T03:21:55.362Z,12.65
2018-04-27T03:24:25.186Z,12.76
2018-04-27T03:26:55.612Z,12.89
2018-04-27T03:29:26.347Z,13.01
2018-04-27T03:31:57.339Z,13.13
2018-04-27T03:34:29.713Z,13.24
2018-04-27T03:37:00.164Z,13.13
2018-04-27T03:39:30.487Z,13.30
2018-04-27T03:42:01.148Z,13.37
2018-04-27T03:44:31.496Z,13.39
2018-04-27T03:47:02.071Z,13.40
2018-04-27T03:49:33.176Z,13.22
2018-04-27T03:52:03.573Z,13.48
2018-04-27T03:54:34.159Z,13.52
2018-04-27T03:57:05.040Z,13.50
2018-04-27T03:59:47.445Z,13.77
2018-04-27T04:02:29.817Z,13.57
2018-04-27T04:05:12.679Z,13.85
2018-04-27T04:07:43.165Z,13.99
2018-04-27T04:10:14.003Z,14.00
2018-04-27T04:12:44.259Z,13.98
2018-04-27T04:15:14.479Z,14.12
2018-04-27T04:17:45.037Z,14.26
2018-04-27T04:20:15.551Z,14.19
2018-04-27T04:22:46.489Z,14.40
2018-04-27T04:25:19.964Z,14.50
2018-04-27T04:27:50.327Z,14.54
2018-04-27T04:30:21.023Z,14.53
2018-04-27T04:32:51.366Z,14.65
2018-04-27T04:35:21.895Z,14.60
2018-04-27T04:37:52.981Z,14.59
2018-04-27T04:40:23.385Z,14.76
2018-04-27T04:42:53.675Z,14.87
2018-04-27T04:45:23.500Z,14.87
2018-04-27T04:47:54.563Z,14.98
2018-04-27T04:50:25.092Z,15.11
2018-04-27T04:52:56.108Z,15.22
2018-04-27T04:55:27.403Z,15.27
2018-04-27T04:57:58.146Z,15.40
2018-04-27T05:00:28.135Z,15.49
2018-04-27T05:02:58.408Z,15.53
2018-04-27T05:05:28.852Z,15.42
2018-04-27T05:07:59.365Z,15.48
2018-04-27T05:10:29.999Z,15.45
2018-04-27T05:12:59.942Z,15.63
2018-04-27T05:15:30.288Z,15.65
2018-04-27T05:18:02.310Z,15.82
2018-04-27T05:20:33.276Z,15.77
2018-04-27T05:23:03.962Z,15.93
2018-04-27T05:25:34.726Z,16.24
2018-04-27T05:28:05.327Z,16.78
2018-04-27T05:30:36.096Z,17.34
2018-04-27T05:33:06.710Z,17.75
2018-04-27T05:35:37.348Z,18.16
2018-04-27T05:38:08.194Z,18.36
2018-04-27T05:40:38.789Z,18.59
2018-04-27T05:43:10.230Z,18.63
2018-04-27T05:45:40.927Z,18.58
2018-04-27T05:48:11.490Z,18.52
2018-04-27T05:50:41.887Z,18.63
2018-04-27T05:53:12.724Z,18.93
2018-04-27T05:55:43.610Z,19.41
2018-04-27T05:58:14.379Z,19.53
2018-04-27T06:00:44.910Z,19.78
2018-04-27T06:03:15.550Z,20.23
2018-04-27T06:05:45.797Z,20.58
2018-04-27T06:08:16.194Z,20.64
2018-04-27T06:10:48.030Z,20.86
2018-04-27T06:13:18.404Z,21.10
2018-04-27T06:15:49.340Z,21.03
2018-04-27T06:18:20.935Z,21.11
2018-04-27T06:20:51.417Z,21.24
2018-04-27T06:23:21.405Z,21.45
2018-04-27T06:25:51.981Z,21.26
2018-04-27T06:28:22.591Z,21.26
2018-04-27T06:30:52.971Z,21.43
2018-04-27T06:33:23.554Z,21.60
2018-04-27T06:35:53.954Z,21.59
2018-04-27T06:38:24.282Z,21.61
2018-04-27T06:40:54.838Z,21.78
2018-04-27T06:43:25.545Z,22.10
2018-04-27T06:45:56.012Z,22.01
2018-04-27T06:48:26.733Z,22.01
2018-04-27T06:50:59.579Z,22.04
2018-04-27T06:53:29.910Z,22.29
2018-04-27T06:56:01.058Z,22.31
2018-04-27T06:58:31.729Z,22.64
2018-04-27T07:01:02.704Z,22.72
2018-04-27T07:03:33.460Z,22.82
2018-04-27T07:06:04.057Z,22.70
2018-04-27T07:08:34.249Z,23.13
2018-04-27T07:11:05.243Z,23.25
2018-04-27T07:13:35.413Z,23.47
2018-04-27T07:16:06.511Z,23.88
2018-04-27T07:18:36.915Z,23.76
2018-04-27T07:21:07.556Z,24.07
2018-04-27T07:23:38.536Z,24.38
2018-04-27T07:26:09.446Z,24.52
2018-04-27T07:28:40.944Z,24.57
2018-04-27T07:31:11.542Z,24.65
2018-04-27T07:33:41.694Z,24.74
2018-04-27T07:36:12.261Z,24.65
2018-04-27T07:38:43.098Z,24.92
2018-04-27T07:41:13.997Z,25.20
2018-04-27T07:43:44.523Z,25.53
2018-04-27T07:46:14.445Z,25.30
2018-04-27T07:48:44.677Z,25.12
2018-04-27T07:51:15.602Z,25.23
2018-04-27T07:53:45.923Z,25.34
2018-04-27T07:56:17.127Z,25.64
2018-04-27T07:58:47.719Z,25.69
2018-04-27T08:01:18.038Z,25.93
2018-04-27T08:03:47.854Z,26.17
2018-04-27T08:06:18.391Z,26.45
2018-04-27T08:08:48.700Z,26.64
2018-04-27T08:11:18.801Z,26.78
2018-04-27T08:13:48.844Z,26.97
2018-04-27T08:16:18.872Z,26.63
2018-04-27T08:18:50.239Z,26.75
2018-04-27T08:21:20.270Z,26.77
2018-04-27T08:23:50.636Z,26.62
2018-04-27T08:26:30.425Z,26.57
2018-04-27T08:29:03.375Z,26.37
2018-04-27T08:31:34.450Z,26.46
2018-04-27T08:34:04.874Z,26.80
2018-04-27T08:36:35.703Z,26.87
2018-04-27T08:39:05.718Z,26.53
2018-04-27T08:41:36.195Z,26.76
2018-04-27T08:44:06.876Z,27.23
2018-04-27T08:46:37.893Z,27.44
2018-04-27T08:49:08.689Z,27.54
2018-04-27T08:51:39.405Z,27.57
2018-04-27T08:54:10.173Z,27.85
2018-04-27T08:56:40.650Z,27.91
2018-04-27T08:59:12.707Z,28.33
2018-04-27T09:01:44.035Z,28.44
2018-04-27T09:04:15.100Z,28.77
2018-04-27T09:06:45.668Z,28.98
2018-04-27T09:09:16.369Z,29.24
2018-04-27T09:11:46.992Z,29.31
2018-04-27T09:14:17.137Z,29.69
2018-04-27T09:16:47.222Z,30.43
2018-04-27T09:19:17.574Z,31.01
2018-04-27T09:21:47.589Z,30.83
2018-04-27T09:24:17.506Z,30.67
2018-04-27T09:26:48.137Z,30.85
2018-04-27T09:29:18.724Z,30.84
2018-04-27T09:31:49.368Z,31.17
2018-04-27T09:34:20.759Z,31.08
2018-04-27T09:36:50.688Z,30.85
2018-04-27T09:39:20.940Z,30.97
2018-04-27T09:41:51.007Z,30.99
2018-04-27T09:44:21.289Z,31.28
2018-04-27T09:46:52.333Z,32.21
2018-04-27T09:49:23.017Z,32.44
2018-04-27T09:51:53.436Z,32.98
2018-04-27T09:54:23.336Z,33.19
2018-04-27T09:56:53.470Z,32.33
2018-04-27T09:59:24.195Z,32.38
2018-04-27T10:01:54.835Z,33.37
2018-04-27T10:04:25.648Z,33.88
2018-04-27T10:06:56.665Z,33.66
2018-04-27T10:09:27.661Z,33.65
2018-04-27T10:11:58.804Z,33.60
2018-04-27T10:14:30.032Z,33.96
2018-04-27T10:16:59.876Z,33.70
2018-04-27T10:19:31.622Z,33.61
2018-04-27T10:22:01.420Z,34.48
2018-04-27T10:24:31.256Z,34.52
2018-04-27T10:27:02.003Z,34.55
2018-04-27T10:29:32.776Z,34.72
2018-04-27T10:32:03.104Z,34.92
2018-04-27T10:34:33.131Z,35.67
2018-04-27T10:37:03.178Z,35.62
2018-04-27T10:39:33.507Z,35.70
2018-04-27T10:42:04.210Z,35.98
2018-04-27T10:44:34.572Z,36.05
2018-04-27T10:47:05.780Z,35.85
2018-04-27T10:49:36.042Z,36.39
2018-04-27T10:52:06.646Z,36.18
2018-04-27T10:54:37.079Z,36.11
2018-04-27T10:57:07.129Z,35.75
2018-04-27T10:59:37.415Z,35.35
2018-04-27T11:02:07.939Z,35.58
2018-04-27T11:04:38.897Z,36.04
2018-04-27T11:07:09.461Z,36.31
2018-04-27T11:09:40.710Z,36.74
2018-04-27T11:12:11.013Z,36.75
2018-04-27T11:14:41.131Z,36.58
2018-04-27T11:17:11.245Z,36.54
2018-04-27T11:19:42.202Z,36.46
2018-04-27T11:22:12.332Z,36.30
2018-04-27T11:24:42.812Z,36.33
2018-04-27T11:27:13.023Z,36.12
2018-04-27T11:29:44.157Z,36.40
2018-04-27T11:32:14.538Z,37.29
2018-04-27T11:34:44.958Z,36.76
2018-04-27T11:37:15.302Z,35.94
2018-04-27T11:39:45.719Z,35.67
2018-04-27T11:42:15.843Z,36.06
2018-04-27T11:44:46.678Z,36.33
2018-04-27T11:47:17.107Z,36.43
2018-04-27T11:49:47.112Z,37.18
2018-04-27T11:52:18.104Z,37.29
2018-04-27T11:54:48.235Z,37.53
2018-04-27T11:57:18.396Z,37.50
2018-04-27T11:59:48.489Z,37.44
2018-04-27T12:02:18.438Z,37.21
2018-04-27T12:04:48.349Z,37.35
2018-04-27T12:07:18.464Z,37.18
2018-04-27T12:09:48.449Z,36.50
2018-04-27T12:12:19.222Z,36.39
2018-04-27T12:14:49.405Z,36.70
2018-04-27T12:17:19.867Z,36.94
2018-04-27T12:19:49.887Z,36.96
2018-04-27T12:22:20.741Z,36.57
2018-04-27T12:24:51.207Z,36.28
2018-04-27T12:27:21.273Z,36.58
2018-04-27T12:29:51.588Z,37.08
2018-04-27T12:32:21.733Z,36.86
2018-04-27T12:34:52.533Z,36.68
2018-04-27T12:37:22.481Z,36.47
2018-04-27T12:39:52.906Z,36.66
2018-04-27T12:42:22.812Z,37.02
2018-04-27T12:44:53.418Z,36.05
2018-04-27T12:47:23.789Z,34.64
2018-04-27T12:49:53.901Z,33.36
2018-04-27T12:52:24.837Z,33.94
2018-04-27T12:54:54.823Z,34.20
2018-04-27T12:57:25.226Z,34.50
2018-04-27T12:59:56.440Z,33.27
2018-04-27T13:02:27.052Z,31.36
2018-04-27T13:04:57.600Z,28.80
2018-04-27T13:07:28.245Z,27.46
2018-04-27T13:09:58.308Z,27.47
2018-04-27T13:12:29.364Z,27.84
2018-04-27T13:14:59.712Z,27.08
2018-04-27T13:17:30.553Z,25.74
2018-04-27T13:20:00.869Z,25.41
2018-04-27T13:22:31.191Z,25.74
2018-04-27T13:25:01.375Z,25.62
2018-04-27T13:27:31.643Z,26.24
2018-04-27T13:30:01.993Z,26.64
2018-04-27T13:32:32.615Z,27.35
2018-04-27T13:35:03.230Z,27.95
2018-04-27T13:37:33.970Z,28.86
2018-04-27T13:40:04.079Z,29.42
2018-04-27T13:42:34.270Z,29.62
2018-04-27T13:45:04.411Z,29.39
2018-04-27T13:47:37.218Z,29.46
2018-04-27T13:50:08.127Z,29.77
2018-04-27T13:52:38.679Z,30.61
2018-04-27T13:55:08.590Z,30.27
2018-04-27T13:57:38.922Z,30.49
2018-04-27T14:00:09.003Z,30.40
2018-04-27T14:02:39.081Z,29.72
2018-04-27T14:05:09.282Z,30.13
2018-04-27T14:07:39.808Z,29.88
2018-04-27T14:10:09.834Z,29.50
2018-04-27T14:12:40.154Z,29.61
2018-04-27T14:15:10.067Z,29.90
2018-04-27T14:17:40.406Z,30.01
2018-04-27T14:20:10.721Z,29.85
2018-04-27T14:22:40.956Z,29.78
2018-04-27T14:25:11.268Z,29.95
2018-04-27T14:27:42.523Z,30.50
2018-04-27T14:30:12.631Z,30.99
2018-04-27T14:32:43.131Z,31.42
2018-04-27T14:35:13.727Z,32.26
2018-04-27T14:37:45.168Z,32.63
2018-04-27T14:40:15.171Z,32.79
2018-04-27T14:42:46.106Z,33.74
2018-04-27T14:45:17.063Z,33.48
2018-04-27T14:47:47.763Z,33.70
2018-04-27T14:50:17.899Z,33.67
2018-04-27T14:52:48.471Z,33.84
2018-04-27T14:55:19.548Z,33.99
2018-04-27T14:57:50.178Z,33.92
2018-04-27T15:00:21.064Z,33.84
2018-04-27T15:02:52.153Z,34.25
2018-04-27T15:05:22.896Z,34.51
2018-04-27T15:07:53.845Z,34.70
2018-04-27T15:10:24.654Z,34.75
2018-04-27T15:12:54.619Z,34.77
2018-04-27T15:15:24.535Z,35.17
2018-04-27T15:17:54.613Z,35.25
2018-04-27T15:20:25.456Z,35.34
2018-04-27T15:22:55.883Z,35.16
2018-04-27T15:25:27.121Z,35.07
2018-04-27T15:27:57.081Z,35.14
2018-04-27T15:30:27.400Z,34.99
2018-04-27T15:32:57.432Z,34.55
2018-04-27T15:35:27.553Z,34.33
2018-04-27T15:37:57.967Z,34.18
2018-04-27T15:40:28.838Z,34.49
2018-04-27T15:42:59.547Z,34.69
2018-04-27T15:45:29.858Z,34.58
2018-04-27T15:48:00.194Z,34.63
2018-04-27T15:50:30.008Z,34.68
2018-04-27T15:53:00.223Z,34.39
2018-04-27T15:55:30.634Z,33.73
2018-04-27T15:58:00.641Z,33.48
2018-04-27T16:00:31.475Z,33.37
2018-04-27T16:03:01.738Z,33.29
2018-04-27T16:05:31.542Z,33.29
2018-04-27T16:08:01.968Z,33.15
2018-04-27T16:10:32.399Z,33.03
2018-04-27T16:13:10.059Z,33.15
2018-04-27T16:15:40.324Z,32.83
2018-04-27T16:18:10.445Z,32.54
2018-04-27T16:20:41.173Z,31.98
2018-04-27T16:23:11.199Z,31.50
2018-04-27T16:25:42.229Z,31.54
2018-04-27T16:28:12.351Z,31.48
2018-04-27T16:30:42.378Z,31.24
2018-04-27T16:33:12.602Z,30.84
2018-04-27T16:35:43.095Z,30.55
2018-04-27T16:38:13.240Z,30.31
2018-04-27T16:40:43.251Z,30.24
2018-04-27T16:43:14.224Z,30.01
2018-04-27T16:45:44.216Z,29.82
2018-04-27T16:48:15.101Z,29.20
2018-04-27T16:50:45.379Z,28.75
2018-04-27T16:53:16.146Z,28.33
2018-04-27T16:55:46.236Z,27.86
2018-04-27T16:58:16.157Z,27.51
2018-04-27T17:00:46.649Z,27.49
2018-04-27T17:03:16.655Z,27.18
2018-04-27T17:05:47.126Z,27.10
2018-04-27T17:08:17.460Z,26.86
2018-04-27T17:10:47.880Z,26.75
2018-04-27T17:13:18.449Z,26.47
2018-04-27T17:15:48.430Z,26.01
2018-04-27T17:18:18.551Z,26.00
2018-04-27T17:20:48.683Z,26.05
2018-04-27T17:23:19.408Z,25.92
2018-04-27T17:25:50.576Z,25.45
2018-04-27T17:28:21.366Z,25.31
2018-04-27T17:30:52.637Z,25.15
2018-04-27T17:33:22.648Z,25.18
2018-04-27T17:35:52.994Z,25.12
2018-04-27T17:38:23.001Z,24.99
2018-04-27T17:40:52.822Z,24.81
2018-04-27T17:43:22.754Z,24.80
2018-04-27T17:45:52.863Z,24.78
2018-04-27T17:48:22.771Z,24.75
2018-04-27T17:50:53.399Z,24.68
2018-04-27T17:53:23.826Z,24.49
2018-04-27T17:55:54.354Z,24.38
2018-04-27T17:58:25.354Z,24.28
2018-04-27T18:00:55.507Z,23.84
2018-04-27T18:03:26.139Z,23.68
2018-04-27T18:05:56.872Z,23.80
2018-04-27T18:08:27.286Z,23.82
2018-04-27T18:10:57.836Z,23.83
2018-04-27T18:13:27.756Z,23.77
2018-04-27T18:15:58.055Z,23.68
2018-04-27T18:18:28.806Z,23.71
2018-04-27T18:20:59.644Z,23.56
2018-04-27T18:23:29.563Z,23.35
2018-04-27T18:26:00.062Z,23.31
2018-04-27T18:28:30.311Z,23.23
2018-04-27T18:31:00.744Z,23.23
2018-04-27T18:33:31.747Z,23.13
2018-04-27T18:36:02.413Z,23.05
2018-04-27T18:38:33.459Z,23.08
2018-04-27T18:41:03.476Z,23.07
2018-04-27T18:43:33.716Z,22.79
2018-04-27T18:46:05.090Z,22.69
2018-04-27T18:48:37.901Z,22.59
2018-04-27T18:51:08.872Z,22.78
2018-04-27T18:53:38.901Z,22.75
2018-04-27T18:56:09.215Z,22.83
2018-04-27T18:58:39.549Z,22.89
2018-04-27T19:01:10.113Z,22.90
2018-04-27T19:03:40.092Z,22.94
2018-04-27T19:06:10.115Z,22.84
2018-04-27T19:08:40.125Z,22.80
2018-04-27T19:11:10.056Z,22.85
2018-04-27T19:13:39.972Z,22.70
2018-04-27T19:16:09.884Z,22.72
2018-04-27T19:18:40.160Z,22.66
2018-04-27T19:21:10.889Z,22.59
2018-04-27T19:23:41.349Z,22.49
2018-04-27T19:26:11.276Z,22.45
2018-04-27T19:28:41.289Z,22.33
2018-04-27T19:31:11.206Z,22.21
2018-04-27T19:33:41.231Z,21.98
2018-04-27T19:36:11.512Z,21.96
2018-04-27T19:38:41.371Z,21.82
2018-04-27T19:41:11.402Z,21.79
2018-04-27T19:43:41.504Z,21.74
2018-04-27T19:46:11.644Z,21.68
2018-04-27T19:48:41.962Z,21.46
2018-04-27T19:51:12.760Z,21.49
2018-04-27T19:53:42.819Z,21.45
2018-04-27T19:56:12.720Z,21.48
2018-04-27T19:58:43.536Z,21.36
2018-04-27T20:01:13.582Z,21.35
2018-04-27T20:03:44.022Z,21.28
2018-04-27T20:06:14.022Z,21.15
2018-04-27T20:08:44.548Z,21.09
2018-04-27T20:11:14.660Z,20.82
2018-04-27T20:13:45.848Z,20.66
2018-04-27T20:16:37.034Z,20.58
2018-04-27T20:19:07.768Z,20.52
2018-04-27T20:21:37.813Z,20.53
2018-04-27T20:24:08.288Z,20.51
2018-04-27T20:26:38.405Z,20.45
2018-04-27T20:29:08.444Z,20.37
2018-04-27T20:31:39.402Z,20.22
2018-04-27T20:34:09.399Z,20.28
2018-04-27T20:36:40.419Z,20.25
2018-04-27T20:39:10.466Z,20.03
2018-04-27T20:41:40.686Z,20.07
2018-04-27T20:44:10.704Z,19.99
2018-04-27T20:46:40.629Z,19.94
2018-04-27T20:49:11.063Z,19.90
2018-04-27T20:51:40.963Z,19.68
2018-04-27T20:54:10.882Z,19.64
2018-04-27T20:56:46.988Z,19.65
2018-04-27T20:59:17.822Z,19.61
2018-04-27T21:01:47.799Z,19.43
2018-04-27T21:04:17.803Z,19.41
2018-04-27T21:06:48.224Z,19.35
2018-04-27T21:09:18.275Z,19.29
2018-04-27T21:11:48.287Z,19.28
2018-04-27T21:14:18.873Z,19.27
2018-04-27T21:16:48.929Z,19.36
2018-04-27T21:19:19.529Z,19.26
2018-04-27T21:21:49.690Z,18.97
2018-04-27T21:24:19.594Z,19.02
2018-04-27T21:26:49.621Z,19.05
2018-04-27T21:29:19.749Z,18.88
2018-04-27T21:31:49.757Z,18.83
2018-04-27T21:34:19.772Z,18.83
2018-04-27T21:36:50.511Z,18.83
2018-04-27T21:39:30.878Z,18.72
2018-04-27T21:42:03.612Z,18.71
2018-04-27T21:44:45.636Z,18.72
2018-04-27T21:47:36.664Z,18.71
2018-04-27T21:50:06.629Z,18.81
2018-04-27T21:52:44.639Z,18.70
2018-04-27T21:55:15.824Z,18.62
2018-04-27T21:58:04.891Z,18.73
2018-04-27T22:00:35.610Z,18.60
2018-04-27T22:03:20.484Z,18.60
2018-04-27T22:06:01.279Z,18.57
2018-04-27T22:08:37.267Z,18.45
2018-04-27T22:11:07.779Z,18.50
2018-04-27T22:13:38.141Z,18.54
2018-04-27T22:16:14.024Z,18.40
2018-04-27T22:18:44.096Z,18.38
2018-04-27T22:21:13.972Z,18.33
2018-04-27T22:23:44.710Z,18.39
2018-04-27T22:26:18.601Z,18.34
2018-04-27T22:28:51.372Z,18.35
2018-04-27T22:31:22.238Z,18.36
2018-04-27T22:33:56.061Z,18.32
2018-04-27T22:36:42.531Z,18.52
2018-04-27T22:39:22.174Z,18.58
2018-04-27T22:41:54.626Z,18.45
2018-04-27T22:44:25.503Z,18.41
2018-04-27T22:46:55.624Z,18.12
2018-04-27T22:49:25.635Z,18.03
2018-04-27T22:51:56.751Z,18.13
2018-04-27T22:57:39.109Z,17.98
2018-04-27T23:00:10.248Z,17.87
2018-04-27T23:02:40.160Z,17.68
2018-04-27T23:05:34.433Z,17.76
2018-04-27T23:08:04.360Z,17.80
2018-04-27T23:10:59.584Z,17.89
2018-04-27T23:13:34.404Z,17.73
2018-04-27T23:16:05.619Z,17.71
2018-04-27T23:18:52.058Z,17.70
2018-04-27T23:21:39.134Z,17.78
2018-04-27T23:24:11.035Z,17.84
2018-04-27T23:26:41.150Z,17.79
2018-04-27T23:29:11.857Z,17.84
2018-04-27T23:31:43.198Z,17.94
2018-04-27T23:34:13.171Z,17.99
2018-04-27T23:36:43.243Z,18.04
2018-04-27T23:39:13.573Z,17.98
2018-04-27T23:41:44.144Z,17.97
2018-04-27T23:44:14.042Z,17.93
2018-04-27T23:46:44.058Z,17.97
2018-04-27T23:49:15.165Z,17.79
2018-04-27T23:51:46.565Z,17.55
2018-04-27T23:54:16.569Z,17.53
2018-04-27T23:56:47.667Z,17.45
2018-04-27T23:59:18.451Z,17.33
